sensor_id;sensor_type;location;lat;lon;timestamp;P1;durP1;ratioP1;P2;durP2;ratioP2
18445;SDS011;9352;50.888;4.466;2022-09-01T00:00:04;12.35;;;3.92;;
18445;SDS011;9352;50.888;4.466;2022-09-01T00:02:34;11.60;;;3.75;;
18445;SDS011;9352;50.888;4.466;2022-09-01T00:05:01;9.75;;;4.05;;
18445;SDS011;9352;50.888;4.466;2022-09-01T00:07:31;10.00;;;3.75;;
18445;SDS011;9352;50.888;4.466;2022-09-01T00:09:59;6.47;;;4.00;;
18445;SDS011;9352;50.888;4.466;2022-09-01T00:12:28;9.80;;;3.97;;
18445;SDS011;9352;50.888;4.466;2022-09-01T00:14:55;6.40;;;3.85;;
18445;SDS011;9352;50.888;4.466;2022-09-01T00:17:22;8.55;;;4.32;;
18445;SDS011;9352;50.888;4.466;2022-09-01T00:19:50;8.02;;;3.70;;
18445;SDS011;9352;50.888;4.466;2022-09-01T00:22:17;7.55;;;4.35;;
18445;SDS011;9352;50.888;4.466;2022-09-01T00:24:44;11.80;;;4.63;;
18445;SDS011;9352;50.888;4.466;2022-09-01T00:27:11;10.57;;;4.47;;
18445;SDS011;9352;50.888;4.466;2022-09-01T00:29:38;10.35;;;4.50;;
18445;SDS011;9352;50.888;4.466;2022-09-01T00:32:05;10.18;;;4.38;;
18445;SDS011;9352;50.888;4.466;2022-09-01T00:34:32;9.23;;;4.05;;
18445;SDS011;9352;50.888;4.466;2022-09-01T00:37:00;9.88;;;4.00;;
18445;SDS011;9352;50.888;4.466;2022-09-01T00:39:26;6.97;;;4.18;;
18445;SDS011;9352;50.888;4.466;2022-09-01T00:41:54;10.05;;;4.50;;
18445;SDS011;9352;50.888;4.466;2022-09-01T00:44:22;9.65;;;4.15;;
18445;SDS011;9352;50.888;4.466;2022-09-01T00:46:52;4.47;;;3.45;;
18445;SDS011;9352;50.888;4.466;2022-09-01T00:49:21;7.90;;;3.25;;
18445;SDS011;9352;50.888;4.466;2022-09-01T00:51:54;7.25;;;3.65;;
18445;SDS011;9352;50.888;4.466;2022-09-01T00:54:27;5.82;;;3.30;;
18445;SDS011;9352;50.888;4.466;2022-09-01T00:57:07;6.53;;;3.70;;
18445;SDS011;9352;50.888;4.466;2022-09-01T00:59:36;8.00;;;3.78;;
18445;SDS011;9352;50.888;4.466;2022-09-01T01:02:08;5.88;;;3.38;;
18445;SDS011;9352;50.888;4.466;2022-09-01T01:04:36;3.67;;;3.03;;
18445;SDS011;9352;50.888;4.466;2022-09-01T01:07:07;5.88;;;3.80;;
18445;SDS011;9352;50.888;4.466;2022-09-01T01:09:39;4.95;;;3.38;;
18445;SDS011;9352;50.888;4.466;2022-09-01T01:12:09;5.97;;;3.67;;
18445;SDS011;9352;50.888;4.466;2022-09-01T01:14:37;12.27;;;3.55;;
18445;SDS011;9352;50.888;4.466;2022-09-01T01:17:05;10.13;;;4.47;;
18445;SDS011;9352;50.888;4.466;2022-09-01T01:19:35;5.70;;;3.20;;
18445;SDS011;9352;50.888;4.466;2022-09-01T01:22:27;8.82;;;3.30;;
18445;SDS011;9352;50.888;4.466;2022-09-01T01:25:19;8.18;;;3.60;;
18445;SDS011;9352;50.888;4.466;2022-09-01T01:27:50;5.90;;;3.42;;
18445;SDS011;9352;50.888;4.466;2022-09-01T01:30:17;7.30;;;3.70;;
18445;SDS011;9352;50.888;4.466;2022-09-01T01:32:45;4.68;;;3.28;;
18445;SDS011;9352;50.888;4.466;2022-09-01T01:35:14;9.27;;;4.10;;
18445;SDS011;9352;50.888;4.466;2022-09-01T01:37:46;6.30;;;3.75;;
18445;SDS011;9352;50.888;4.466;2022-09-01T01:40:13;8.25;;;3.70;;
18445;SDS011;9352;50.888;4.466;2022-09-01T01:42:44;6.57;;;3.88;;
18445;SDS011;9352;50.888;4.466;2022-09-01T01:45:12;8.15;;;3.55;;
18445;SDS011;9352;50.888;4.466;2022-09-01T01:47:41;8.80;;;4.15;;
18445;SDS011;9352;50.888;4.466;2022-09-01T01:50:10;5.47;;;3.67;;
18445;SDS011;9352;50.888;4.466;2022-09-01T01:52:39;7.82;;;3.83;;
18445;SDS011;9352;50.888;4.466;2022-09-01T01:55:07;10.25;;;3.90;;
18445;SDS011;9352;50.888;4.466;2022-09-01T01:57:36;5.93;;;3.85;;
18445;SDS011;9352;50.888;4.466;2022-09-01T02:00:06;5.75;;;3.50;;
18445;SDS011;9352;50.888;4.466;2022-09-01T02:02:35;6.15;;;3.60;;
18445;SDS011;9352;50.888;4.466;2022-09-01T02:05:04;8.73;;;3.53;;
18445;SDS011;9352;50.888;4.466;2022-09-01T02:07:32;7.25;;;3.60;;
18445;SDS011;9352;50.888;4.466;2022-09-01T02:09:59;6.15;;;3.60;;
18445;SDS011;9352;50.888;4.466;2022-09-01T02:12:26;7.32;;;4.00;;
18445;SDS011;9352;50.888;4.466;2022-09-01T02:14:53;4.85;;;3.08;;
18445;SDS011;9352;50.888;4.466;2022-09-01T02:17:21;7.35;;;3.22;;
18445;SDS011;9352;50.888;4.466;2022-09-01T02:19:49;5.85;;;3.78;;
18445;SDS011;9352;50.888;4.466;2022-09-01T02:22:21;22.80;;;4.03;;
18445;SDS011;9352;50.888;4.466;2022-09-01T02:24:48;9.70;;;3.80;;
18445;SDS011;9352;50.888;4.466;2022-09-01T02:27:17;10.95;;;4.10;;
18445;SDS011;9352;50.888;4.466;2022-09-01T02:29:47;8.75;;;3.85;;
18445;SDS011;9352;50.888;4.466;2022-09-01T02:32:18;5.90;;;3.40;;
18445;SDS011;9352;50.888;4.466;2022-09-01T02:34:47;3.88;;;3.13;;
18445;SDS011;9352;50.888;4.466;2022-09-01T02:37:17;5.95;;;3.10;;
18445;SDS011;9352;50.888;4.466;2022-09-01T02:39:49;5.72;;;3.17;;
18445;SDS011;9352;50.888;4.466;2022-09-01T02:42:17;5.18;;;3.17;;
18445;SDS011;9352;50.888;4.466;2022-09-01T02:44:46;9.65;;;3.08;;
18445;SDS011;9352;50.888;4.466;2022-09-01T02:47:13;4.47;;;3.13;;
18445;SDS011;9352;50.888;4.466;2022-09-01T02:49:40;7.38;;;3.00;;
18445;SDS011;9352;50.888;4.466;2022-09-01T02:52:08;3.95;;;3.20;;
18445;SDS011;9352;50.888;4.466;2022-09-01T02:54:35;8.48;;;3.33;;
18445;SDS011;9352;50.888;4.466;2022-09-01T02:57:02;5.90;;;3.13;;
18445;SDS011;9352;50.888;4.466;2022-09-01T02:59:29;8.07;;;3.10;;
18445;SDS011;9352;50.888;4.466;2022-09-01T03:01:56;4.65;;;3.10;;
18445;SDS011;9352;50.888;4.466;2022-09-01T03:04:23;5.13;;;3.00;;
18445;SDS011;9352;50.888;4.466;2022-09-01T03:06:51;7.20;;;3.17;;
18445;SDS011;9352;50.888;4.466;2022-09-01T03:09:20;6.75;;;2.90;;
18445;SDS011;9352;50.888;4.466;2022-09-01T03:11:48;4.97;;;3.35;;
18445;SDS011;9352;50.888;4.466;2022-09-01T03:14:17;10.82;;;3.30;;
18445;SDS011;9352;50.888;4.466;2022-09-01T03:16:45;5.85;;;3.33;;
18445;SDS011;9352;50.888;4.466;2022-09-01T03:19:12;8.88;;;3.30;;
18445;SDS011;9352;50.888;4.466;2022-09-01T03:21:41;5.75;;;3.67;;
18445;SDS011;9352;50.888;4.466;2022-09-01T03:24:11;6.90;;;3.50;;
18445;SDS011;9352;50.888;4.466;2022-09-01T03:26:42;4.72;;;2.90;;
18445;SDS011;9352;50.888;4.466;2022-09-01T03:29:11;5.28;;;3.30;;
18445;SDS011;9352;50.888;4.466;2022-09-01T03:31:39;5.57;;;2.88;;
18445;SDS011;9352;50.888;4.466;2022-09-01T03:34:07;6.25;;;3.20;;
18445;SDS011;9352;50.888;4.466;2022-09-01T03:36:35;5.93;;;3.13;;
18445;SDS011;9352;50.888;4.466;2022-09-01T03:39:02;5.47;;;3.17;;
18445;SDS011;9352;50.888;4.466;2022-09-01T03:41:31;9.40;;;3.53;;
18445;SDS011;9352;50.888;4.466;2022-09-01T03:43:59;5.75;;;3.55;;
18445;SDS011;9352;50.888;4.466;2022-09-01T03:46:26;7.43;;;3.08;;
18445;SDS011;9352;50.888;4.466;2022-09-01T03:48:58;4.45;;;3.50;;
18445;SDS011;9352;50.888;4.466;2022-09-01T03:51:26;6.82;;;3.80;;
18445;SDS011;9352;50.888;4.466;2022-09-01T03:53:55;5.53;;;3.50;;
18445;SDS011;9352;50.888;4.466;2022-09-01T03:56:23;5.45;;;3.40;;
18445;SDS011;9352;50.888;4.466;2022-09-01T03:58:52;12.10;;;3.92;;
18445;SDS011;9352;50.888;4.466;2022-09-01T04:01:22;7.43;;;3.60;;
18445;SDS011;9352;50.888;4.466;2022-09-01T04:03:49;6.50;;;3.80;;
18445;SDS011;9352;50.888;4.466;2022-09-01T04:06:17;5.22;;;3.50;;
18445;SDS011;9352;50.888;4.466;2022-09-01T04:08:46;10.02;;;4.03;;
18445;SDS011;9352;50.888;4.466;2022-09-01T04:11:14;7.55;;;4.10;;
18445;SDS011;9352;50.888;4.466;2022-09-01T04:13:43;10.45;;;4.10;;
18445;SDS011;9352;50.888;4.466;2022-09-01T04:16:18;6.57;;;4.07;;
18445;SDS011;9352;50.888;4.466;2022-09-01T04:19:05;7.53;;;3.65;;
18445;SDS011;9352;50.888;4.466;2022-09-01T04:21:40;8.82;;;4.13;;
18445;SDS011;9352;50.888;4.466;2022-09-01T04:24:08;12.45;;;4.43;;
18445;SDS011;9352;50.888;4.466;2022-09-01T04:26:37;13.07;;;5.50;;
18445;SDS011;9352;50.888;4.466;2022-09-01T04:29:04;10.27;;;5.07;;
18445;SDS011;9352;50.888;4.466;2022-09-01T04:31:33;10.13;;;4.72;;
18445;SDS011;9352;50.888;4.466;2022-09-01T04:34:02;12.55;;;4.80;;
18445;SDS011;9352;50.888;4.466;2022-09-01T04:36:40;10.68;;;4.68;;
18445;SDS011;9352;50.888;4.466;2022-09-01T04:39:09;10.77;;;5.00;;
18445;SDS011;9352;50.888;4.466;2022-09-01T04:41:39;11.05;;;5.35;;
18445;SDS011;9352;50.888;4.466;2022-09-01T04:44:11;13.48;;;5.10;;
18445;SDS011;9352;50.888;4.466;2022-09-01T04:46:40;10.07;;;5.30;;
18445;SDS011;9352;50.888;4.466;2022-09-01T04:49:10;12.82;;;5.13;;
18445;SDS011;9352;50.888;4.466;2022-09-01T04:51:46;15.63;;;5.53;;
18445;SDS011;9352;50.888;4.466;2022-09-01T04:54:14;11.05;;;4.82;;
18445;SDS011;9352;50.888;4.466;2022-09-01T04:56:41;12.23;;;5.15;;
18445;SDS011;9352;50.888;4.466;2022-09-01T04:59:11;13.63;;;4.97;;
18445;SDS011;9352;50.888;4.466;2022-09-01T05:01:39;8.57;;;4.60;;
18445;SDS011;9352;50.888;4.466;2022-09-01T05:04:10;10.68;;;4.97;;
18445;SDS011;9352;50.888;4.466;2022-09-01T05:06:39;8.85;;;4.50;;
18445;SDS011;9352;50.888;4.466;2022-09-01T05:09:08;8.85;;;4.30;;
18445;SDS011;9352;50.888;4.466;2022-09-01T05:11:36;12.68;;;4.30;;
18445;SDS011;9352;50.888;4.466;2022-09-01T05:14:04;8.90;;;4.43;;
18445;SDS011;9352;50.888;4.466;2022-09-01T05:16:34;11.65;;;4.57;;
18445;SDS011;9352;50.888;4.466;2022-09-01T05:19:05;16.42;;;4.45;;
18445;SDS011;9352;50.888;4.466;2022-09-01T05:21:36;15.90;;;5.05;;
18445;SDS011;9352;50.888;4.466;2022-09-01T05:24:04;9.82;;;4.75;;
18445;SDS011;9352;50.888;4.466;2022-09-01T05:26:33;10.88;;;4.72;;
18445;SDS011;9352;50.888;4.466;2022-09-01T05:29:03;11.32;;;4.72;;
18445;SDS011;9352;50.888;4.466;2022-09-01T05:31:34;11.75;;;4.60;;
18445;SDS011;9352;50.888;4.466;2022-09-01T05:34:02;8.82;;;4.28;;
18445;SDS011;9352;50.888;4.466;2022-09-01T05:36:29;15.60;;;4.57;;
18445;SDS011;9352;50.888;4.466;2022-09-01T05:38:58;8.65;;;4.57;;
18445;SDS011;9352;50.888;4.466;2022-09-01T05:41:26;8.88;;;4.57;;
18445;SDS011;9352;50.888;4.466;2022-09-01T05:43:54;18.55;;;5.43;;
18445;SDS011;9352;50.888;4.466;2022-09-01T05:46:23;19.08;;;5.63;;
18445;SDS011;9352;50.888;4.466;2022-09-01T05:48:52;9.32;;;5.35;;
18445;SDS011;9352;50.888;4.466;2022-09-01T05:51:21;11.63;;;5.25;;
18445;SDS011;9352;50.888;4.466;2022-09-01T05:53:53;10.82;;;5.63;;
18445;SDS011;9352;50.888;4.466;2022-09-01T05:56:23;17.15;;;5.22;;
18445;SDS011;9352;50.888;4.466;2022-09-01T05:58:51;8.50;;;4.80;;
18445;SDS011;9352;50.888;4.466;2022-09-01T06:01:21;22.63;;;5.63;;
18445;SDS011;9352;50.888;4.466;2022-09-01T06:03:50;12.43;;;5.88;;
18445;SDS011;9352;50.888;4.466;2022-09-01T06:06:19;18.13;;;5.85;;
18445;SDS011;9352;50.888;4.466;2022-09-01T06:08:47;13.25;;;5.30;;
18445;SDS011;9352;50.888;4.466;2022-09-01T06:11:14;9.07;;;5.70;;
18445;SDS011;9352;50.888;4.466;2022-09-01T06:13:42;19.90;;;6.72;;
18445;SDS011;9352;50.888;4.466;2022-09-01T06:16:11;12.52;;;5.22;;
18445;SDS011;9352;50.888;4.466;2022-09-01T06:18:42;15.88;;;5.68;;
18445;SDS011;9352;50.888;4.466;2022-09-01T06:21:09;11.63;;;5.50;;
18445;SDS011;9352;50.888;4.466;2022-09-01T06:23:39;7.50;;;5.07;;
18445;SDS011;9352;50.888;4.466;2022-09-01T06:26:06;10.65;;;5.60;;
18445;SDS011;9352;50.888;4.466;2022-09-01T06:28:41;11.23;;;5.25;;
18445;SDS011;9352;50.888;4.466;2022-09-01T06:31:08;17.60;;;5.78;;
18445;SDS011;9352;50.888;4.466;2022-09-01T06:33:36;13.15;;;5.22;;
18445;SDS011;9352;50.888;4.466;2022-09-01T06:36:04;10.73;;;5.03;;
18445;SDS011;9352;50.888;4.466;2022-09-01T06:38:33;15.88;;;5.45;;
18445;SDS011;9352;50.888;4.466;2022-09-01T06:41:01;16.10;;;5.18;;
18445;SDS011;9352;50.888;4.466;2022-09-01T06:43:29;10.02;;;4.55;;
18445;SDS011;9352;50.888;4.466;2022-09-01T06:46:00;15.05;;;6.18;;
18445;SDS011;9352;50.888;4.466;2022-09-01T06:48:28;18.45;;;5.32;;
18445;SDS011;9352;50.888;4.466;2022-09-01T06:50:58;16.23;;;8.20;;
18445;SDS011;9352;50.888;4.466;2022-09-01T06:53:27;13.07;;;5.43;;
18445;SDS011;9352;50.888;4.466;2022-09-01T06:55:55;20.95;;;5.90;;
18445;SDS011;9352;50.888;4.466;2022-09-01T06:58:23;20.35;;;5.80;;
18445;SDS011;9352;50.888;4.466;2022-09-01T07:00:50;15.95;;;5.70;;
18445;SDS011;9352;50.888;4.466;2022-09-01T07:03:17;15.70;;;5.95;;
18445;SDS011;9352;50.888;4.466;2022-09-01T07:05:46;20.20;;;5.50;;
18445;SDS011;9352;50.888;4.466;2022-09-01T07:08:15;12.82;;;4.97;;
18445;SDS011;9352;50.888;4.466;2022-09-01T07:10:46;9.82;;;4.97;;
18445;SDS011;9352;50.888;4.466;2022-09-01T07:13:15;9.10;;;4.65;;
18445;SDS011;9352;50.888;4.466;2022-09-01T07:15:44;16.55;;;5.78;;
18445;SDS011;9352;50.888;4.466;2022-09-01T07:18:14;13.23;;;5.05;;
18445;SDS011;9352;50.888;4.466;2022-09-01T07:20:42;18.30;;;5.13;;
18445;SDS011;9352;50.888;4.466;2022-09-01T07:23:11;10.40;;;5.55;;
18445;SDS011;9352;50.888;4.466;2022-09-01T07:25:39;13.20;;;5.00;;
18445;SDS011;9352;50.888;4.466;2022-09-01T07:28:09;14.85;;;4.63;;
18445;SDS011;9352;50.888;4.466;2022-09-01T07:30:39;18.25;;;5.78;;
18445;SDS011;9352;50.888;4.466;2022-09-01T07:33:07;13.55;;;4.90;;
18445;SDS011;9352;50.888;4.466;2022-09-01T07:35:37;9.55;;;4.63;;
18445;SDS011;9352;50.888;4.466;2022-09-01T07:38:05;13.60;;;5.28;;
18445;SDS011;9352;50.888;4.466;2022-09-01T07:40:33;14.13;;;4.70;;
18445;SDS011;9352;50.888;4.466;2022-09-01T07:43:02;17.00;;;4.60;;
18445;SDS011;9352;50.888;4.466;2022-09-01T07:45:33;9.00;;;4.13;;
18445;SDS011;9352;50.888;4.466;2022-09-01T07:48:02;10.88;;;4.80;;
18445;SDS011;9352;50.888;4.466;2022-09-01T07:50:31;18.85;;;4.60;;
18445;SDS011;9352;50.888;4.466;2022-09-01T07:52:58;11.63;;;4.40;;
18445;SDS011;9352;50.888;4.466;2022-09-01T07:55:26;11.57;;;4.13;;
18445;SDS011;9352;50.888;4.466;2022-09-01T07:57:53;7.80;;;4.13;;
18445;SDS011;9352;50.888;4.466;2022-09-01T08:00:21;10.10;;;4.20;;
18445;SDS011;9352;50.888;4.466;2022-09-01T08:02:49;7.85;;;4.15;;
18445;SDS011;9352;50.888;4.466;2022-09-01T08:05:17;9.63;;;4.10;;
18445;SDS011;9352;50.888;4.466;2022-09-01T08:07:46;7.82;;;4.10;;
18445;SDS011;9352;50.888;4.466;2022-09-01T08:10:14;7.97;;;4.15;;
18445;SDS011;9352;50.888;4.466;2022-09-01T08:12:41;6.90;;;3.85;;
18445;SDS011;9352;50.888;4.466;2022-09-01T08:15:09;7.30;;;3.60;;
18445;SDS011;9352;50.888;4.466;2022-09-01T08:17:37;16.20;;;3.53;;
18445;SDS011;9352;50.888;4.466;2022-09-01T08:20:07;9.40;;;3.60;;
18445;SDS011;9352;50.888;4.466;2022-09-01T08:22:35;9.07;;;3.55;;
18445;SDS011;9352;50.888;4.466;2022-09-01T08:25:04;7.35;;;3.30;;
18445;SDS011;9352;50.888;4.466;2022-09-01T08:27:32;6.32;;;3.20;;
18445;SDS011;9352;50.888;4.466;2022-09-01T08:30:00;12.45;;;3.33;;
18445;SDS011;9352;50.888;4.466;2022-09-01T08:32:29;4.68;;;3.08;;
18445;SDS011;9352;50.888;4.466;2022-09-01T08:34:56;14.45;;;3.05;;
18445;SDS011;9352;50.888;4.466;2022-09-01T08:37:24;16.80;;;2.97;;
18445;SDS011;9352;50.888;4.466;2022-09-01T08:39:51;11.70;;;2.92;;
18445;SDS011;9352;50.888;4.466;2022-09-01T08:42:20;7.50;;;3.15;;
18445;SDS011;9352;50.888;4.466;2022-09-01T08:45:00;10.02;;;3.42;;
18445;SDS011;9352;50.888;4.466;2022-09-01T08:47:35;7.57;;;3.38;;
18445;SDS011;9352;50.888;4.466;2022-09-01T08:50:02;9.70;;;2.85;;
18445;SDS011;9352;50.888;4.466;2022-09-01T08:52:32;6.40;;;3.00;;
18445;SDS011;9352;50.888;4.466;2022-09-01T08:55:02;2.97;;;2.75;;
18445;SDS011;9352;50.888;4.466;2022-09-01T08:57:35;5.13;;;2.70;;
18445;SDS011;9352;50.888;4.466;2022-09-01T09:00:04;8.93;;;2.80;;
18445;SDS011;9352;50.888;4.466;2022-09-01T09:02:36;9.38;;;2.88;;
18445;SDS011;9352;50.888;4.466;2022-09-01T09:05:16;5.20;;;2.60;;
18445;SDS011;9352;50.888;4.466;2022-09-01T09:10:58;6.22;;;2.47;;
18445;SDS011;9352;50.888;4.466;2022-09-01T09:13:31;4.82;;;2.70;;
18445;SDS011;9352;50.888;4.466;2022-09-01T09:16:07;3.22;;;2.88;;
18445;SDS011;9352;50.888;4.466;2022-09-01T09:18:39;4.97;;;2.50;;
18445;SDS011;9352;50.888;4.466;2022-09-01T09:21:11;5.30;;;2.55;;
18445;SDS011;9352;50.888;4.466;2022-09-01T09:23:42;9.05;;;2.20;;
18445;SDS011;9352;50.888;4.466;2022-09-01T09:26:14;3.00;;;2.70;;
18445;SDS011;9352;50.888;4.466;2022-09-01T09:28:44;8.45;;;2.20;;
18445;SDS011;9352;50.888;4.466;2022-09-01T09:31:30;5.47;;;2.30;;
18445;SDS011;9352;50.888;4.466;2022-09-01T09:33:59;5.88;;;2.40;;
18445;SDS011;9352;50.888;4.466;2022-09-01T09:36:30;3.00;;;2.33;;
18445;SDS011;9352;50.888;4.466;2022-09-01T09:39:03;8.88;;;2.47;;
18445;SDS011;9352;50.888;4.466;2022-09-01T09:41:34;4.40;;;2.30;;
18445;SDS011;9352;50.888;4.466;2022-09-01T09:44:03;8.50;;;2.33;;
18445;SDS011;9352;50.888;4.466;2022-09-01T09:46:37;8.80;;;2.10;;
18445;SDS011;9352;50.888;4.466;2022-09-01T09:49:17;5.88;;;2.35;;
18445;SDS011;9352;50.888;4.466;2022-09-01T09:51:49;7.53;;;2.28;;
18445;SDS011;9352;50.888;4.466;2022-09-01T09:54:18;5.30;;;1.98;;
18445;SDS011;9352;50.888;4.466;2022-09-01T09:57:02;7.05;;;2.08;;
18445;SDS011;9352;50.888;4.466;2022-09-01T09:59:35;2.05;;;1.95;;
18445;SDS011;9352;50.888;4.466;2022-09-01T10:02:15;5.78;;;2.00;;
18445;SDS011;9352;50.888;4.466;2022-09-01T10:04:49;3.22;;;1.95;;
18445;SDS011;9352;50.888;4.466;2022-09-01T10:07:24;7.35;;;2.00;;
18445;SDS011;9352;50.888;4.466;2022-09-01T10:09:57;1.90;;;1.70;;
18445;SDS011;9352;50.888;4.466;2022-09-01T10:12:27;5.30;;;2.10;;
18445;SDS011;9352;50.888;4.466;2022-09-01T10:14:57;5.32;;;2.13;;
18445;SDS011;9352;50.888;4.466;2022-09-01T10:17:28;4.95;;;2.03;;
18445;SDS011;9352;50.888;4.466;2022-09-01T10:19:59;8.93;;;2.20;;
18445;SDS011;9352;50.888;4.466;2022-09-01T10:22:32;3.70;;;1.90;;
18445;SDS011;9352;50.888;4.466;2022-09-01T10:25:02;11.77;;;2.22;;
18445;SDS011;9352;50.888;4.466;2022-09-01T10:27:34;1.70;;;1.60;;
18445;SDS011;9352;50.888;4.466;2022-09-01T10:30:06;2.60;;;1.85;;
18445;SDS011;9352;50.888;4.466;2022-09-01T10:32:38;5.65;;;1.75;;
18445;SDS011;9352;50.888;4.466;2022-09-01T10:35:09;8.23;;;2.00;;
18445;SDS011;9352;50.888;4.466;2022-09-01T10:37:40;2.67;;;1.67;;
18445;SDS011;9352;50.888;4.466;2022-09-01T10:40:12;8.45;;;1.98;;
18445;SDS011;9352;50.888;4.466;2022-09-01T10:45:54;3.78;;;1.92;;
18445;SDS011;9352;50.888;4.466;2022-09-01T10:48:22;7.32;;;2.00;;
18445;SDS011;9352;50.888;4.466;2022-09-01T10:50:55;4.97;;;1.90;;
18445;SDS011;9352;50.888;4.466;2022-09-01T10:53:55;2.35;;;1.73;;
18445;SDS011;9352;50.888;4.466;2022-09-01T10:56:25;2.13;;;1.80;;
18445;SDS011;9352;50.888;4.466;2022-09-01T10:59:05;3.05;;;1.92;;
18445;SDS011;9352;50.888;4.466;2022-09-01T11:07:40;4.30;;;1.58;;
18445;SDS011;9352;50.888;4.466;2022-09-01T11:13:12;5.70;;;2.20;;
18445;SDS011;9352;50.888;4.466;2022-09-01T11:15:55;3.40;;;1.70;;
18445;SDS011;9352;50.888;4.466;2022-09-01T11:18:42;4.93;;;2.00;;
18445;SDS011;9352;50.888;4.466;2022-09-01T11:21:13;3.53;;;1.70;;
18445;SDS011;9352;50.888;4.466;2022-09-01T11:23:42;5.35;;;2.00;;
18445;SDS011;9352;50.888;4.466;2022-09-01T11:32:23;1.98;;;1.88;;
18445;SDS011;9352;50.888;4.466;2022-09-01T11:34:56;2.13;;;1.92;;
18445;SDS011;9352;50.888;4.466;2022-09-01T11:37:28;4.03;;;1.95;;
18445;SDS011;9352;50.888;4.466;2022-09-01T11:39:57;6.10;;;2.10;;
18445;SDS011;9352;50.888;4.466;2022-09-01T11:42:26;2.80;;;1.83;;
18445;SDS011;9352;50.888;4.466;2022-09-01T11:44:59;3.78;;;2.05;;
18445;SDS011;9352;50.888;4.466;2022-09-01T11:47:31;3.22;;;2.10;;
18445;SDS011;9352;50.888;4.466;2022-09-01T11:50:03;2.53;;;1.75;;
18445;SDS011;9352;50.888;4.466;2022-09-01T11:52:33;1.90;;;1.80;;
18445;SDS011;9352;50.888;4.466;2022-09-01T11:55:04;6.72;;;2.58;;
18445;SDS011;9352;50.888;4.466;2022-09-01T11:57:32;4.97;;;2.10;;
18445;SDS011;9352;50.888;4.466;2022-09-01T12:00:03;4.05;;;2.08;;
18445;SDS011;9352;50.888;4.466;2022-09-01T12:02:33;2.53;;;2.08;;
18445;SDS011;9352;50.888;4.466;2022-09-01T12:05:02;3.17;;;1.80;;
18445;SDS011;9352;50.888;4.466;2022-09-01T12:07:49;2.15;;;1.80;;
18445;SDS011;9352;50.888;4.466;2022-09-01T12:10:18;2.38;;;2.10;;
18445;SDS011;9352;50.888;4.466;2022-09-01T12:12:51;3.88;;;1.90;;
18445;SDS011;9352;50.888;4.466;2022-09-01T12:15:26;6.80;;;2.13;;
18445;SDS011;9352;50.888;4.466;2022-09-01T12:18:07;4.60;;;1.67;;
18445;SDS011;9352;50.888;4.466;2022-09-01T12:20:37;1.83;;;1.73;;
18445;SDS011;9352;50.888;4.466;2022-09-01T12:23:14;3.42;;;1.90;;
18445;SDS011;9352;50.888;4.466;2022-09-01T12:25:44;4.15;;;1.98;;
18445;SDS011;9352;50.888;4.466;2022-09-01T12:28:11;2.25;;;1.70;;
18445;SDS011;9352;50.888;4.466;2022-09-01T12:30:39;1.85;;;1.70;;
18445;SDS011;9352;50.888;4.466;2022-09-01T12:33:09;5.25;;;1.90;;
18445;SDS011;9352;50.888;4.466;2022-09-01T12:35:38;4.68;;;2.08;;
18445;SDS011;9352;50.888;4.466;2022-09-01T12:38:20;1.83;;;1.70;;
18445;SDS011;9352;50.888;4.466;2022-09-01T12:40:49;1.80;;;1.80;;
18445;SDS011;9352;50.888;4.466;2022-09-01T12:43:29;3.70;;;1.90;;
18445;SDS011;9352;50.888;4.466;2022-09-01T12:46:00;3.08;;;2.50;;
18445;SDS011;9352;50.888;4.466;2022-09-01T12:48:30;2.63;;;2.13;;
18445;SDS011;9352;50.888;4.466;2022-09-01T12:50:59;4.43;;;2.10;;
18445;SDS011;9352;50.888;4.466;2022-09-01T12:53:28;4.13;;;2.22;;
18445;SDS011;9352;50.888;4.466;2022-09-01T12:56:02;3.75;;;2.15;;
18445;SDS011;9352;50.888;4.466;2022-09-01T12:58:43;4.13;;;2.20;;
18445;SDS011;9352;50.888;4.466;2022-09-01T13:01:27;2.25;;;1.90;;
18445;SDS011;9352;50.888;4.466;2022-09-01T13:06:55;2.17;;;2.00;;
18445;SDS011;9352;50.888;4.466;2022-09-01T13:09:26;2.38;;;2.17;;
18445;SDS011;9352;50.888;4.466;2022-09-01T13:12:00;2.33;;;2.10;;
18445;SDS011;9352;50.888;4.466;2022-09-01T13:14:34;3.45;;;2.33;;
18445;SDS011;9352;50.888;4.466;2022-09-01T13:17:01;2.88;;;2.38;;
18445;SDS011;9352;50.888;4.466;2022-09-01T13:19:31;3.83;;;2.10;;
18445;SDS011;9352;50.888;4.466;2022-09-01T13:21:58;2.22;;;2.10;;
18445;SDS011;9352;50.888;4.466;2022-09-01T13:24:25;2.03;;;1.92;;
18445;SDS011;9352;50.888;4.466;2022-09-01T13:26:52;4.28;;;2.20;;
18445;SDS011;9352;50.888;4.466;2022-09-01T13:29:19;6.95;;;2.03;;
18445;SDS011;9352;50.888;4.466;2022-09-01T13:31:46;2.83;;;2.30;;
18445;SDS011;9352;50.888;4.466;2022-09-01T13:34:13;3.05;;;2.08;;
18445;SDS011;9352;50.888;4.466;2022-09-01T13:36:41;20.52;;;2.60;;
18445;SDS011;9352;50.888;4.466;2022-09-01T13:39:08;2.57;;;2.20;;
18445;SDS011;9352;50.888;4.466;2022-09-01T13:41:35;2.40;;;2.20;;
18445;SDS011;9352;50.888;4.466;2022-09-01T13:44:03;7.53;;;2.20;;
18445;SDS011;9352;50.888;4.466;2022-09-01T13:46:30;2.40;;;2.30;;
18445;SDS011;9352;50.888;4.466;2022-09-01T13:48:57;3.60;;;2.20;;
18445;SDS011;9352;50.888;4.466;2022-09-01T13:51:24;3.28;;;2.00;;
18445;SDS011;9352;50.888;4.466;2022-09-01T13:53:53;2.33;;;2.13;;
18445;SDS011;9352;50.888;4.466;2022-09-01T13:56:20;3.28;;;1.92;;
18445;SDS011;9352;50.888;4.466;2022-09-01T13:58:49;1.92;;;1.85;;
18445;SDS011;9352;50.888;4.466;2022-09-01T14:01:16;12.80;;;3.10;;
18445;SDS011;9352;50.888;4.466;2022-09-01T14:03:43;1.88;;;1.77;;
18445;SDS011;9352;50.888;4.466;2022-09-01T14:06:10;3.72;;;1.80;;
18445;SDS011;9352;50.888;4.466;2022-09-01T14:08:37;2.67;;;1.92;;
18445;SDS011;9352;50.888;4.466;2022-09-01T14:11:05;2.20;;;2.10;;
18445;SDS011;9352;50.888;4.466;2022-09-01T14:13:32;3.67;;;2.17;;
18445;SDS011;9352;50.888;4.466;2022-09-01T14:16:00;3.65;;;2.10;;
18445;SDS011;9352;50.888;4.466;2022-09-01T14:18:27;7.38;;;2.20;;
18445;SDS011;9352;50.888;4.466;2022-09-01T14:21:00;2.72;;;1.90;;
18445;SDS011;9352;50.888;4.466;2022-09-01T14:23:27;6.63;;;2.05;;
18445;SDS011;9352;50.888;4.466;2022-09-01T14:25:55;2.75;;;1.98;;
18445;SDS011;9352;50.888;4.466;2022-09-01T14:28:24;1.92;;;1.83;;
18445;SDS011;9352;50.888;4.466;2022-09-01T14:30:51;4.85;;;1.88;;
18445;SDS011;9352;50.888;4.466;2022-09-01T14:33:18;4.13;;;1.80;;
18445;SDS011;9352;50.888;4.466;2022-09-01T14:35:48;3.08;;;1.80;;
18445;SDS011;9352;50.888;4.466;2022-09-01T14:38:15;2.67;;;1.85;;
18445;SDS011;9352;50.888;4.466;2022-09-01T14:40:42;3.22;;;1.80;;
18445;SDS011;9352;50.888;4.466;2022-09-01T14:43:13;3.08;;;2.10;;
18445;SDS011;9352;50.888;4.466;2022-09-01T14:45:41;5.55;;;1.80;;
18445;SDS011;9352;50.888;4.466;2022-09-01T14:48:11;2.25;;;1.60;;
18445;SDS011;9352;50.888;4.466;2022-09-01T14:50:39;1.85;;;1.77;;
18445;SDS011;9352;50.888;4.466;2022-09-01T14:53:08;4.43;;;1.70;;
18445;SDS011;9352;50.888;4.466;2022-09-01T14:55:35;1.88;;;1.70;;
18445;SDS011;9352;50.888;4.466;2022-09-01T14:58:02;3.25;;;1.88;;
18445;SDS011;9352;50.888;4.466;2022-09-01T15:00:30;4.65;;;1.90;;
18445;SDS011;9352;50.888;4.466;2022-09-01T15:03:00;8.23;;;1.80;;
18445;SDS011;9352;50.888;4.466;2022-09-01T15:05:28;3.80;;;1.83;;
18445;SDS011;9352;50.888;4.466;2022-09-01T15:07:55;2.70;;;1.80;;
18445;SDS011;9352;50.888;4.466;2022-09-01T15:10:23;3.40;;;1.90;;
18445;SDS011;9352;50.888;4.466;2022-09-01T15:12:51;4.60;;;1.80;;
18445;SDS011;9352;50.888;4.466;2022-09-01T15:15:19;3.00;;;1.95;;
18445;SDS011;9352;50.888;4.466;2022-09-01T15:17:47;3.55;;;2.10;;
18445;SDS011;9352;50.888;4.466;2022-09-01T15:20:15;3.47;;;1.95;;
18445;SDS011;9352;50.888;4.466;2022-09-01T15:23:00;6.47;;;2.00;;
18445;SDS011;9352;50.888;4.466;2022-09-01T15:25:27;4.13;;;2.00;;
18445;SDS011;9352;50.888;4.466;2022-09-01T15:27:54;2.63;;;1.60;;
18445;SDS011;9352;50.888;4.466;2022-09-01T15:30:21;3.40;;;1.50;;
18445;SDS011;9352;50.888;4.466;2022-09-01T15:32:49;1.80;;;1.70;;
18445;SDS011;9352;50.888;4.466;2022-09-01T15:35:19;10.45;;;1.90;;
18445;SDS011;9352;50.888;4.466;2022-09-01T15:37:47;1.98;;;1.88;;